sensor_id;sensor_type;location;lat;lon;timestamp;temperature;humidity
32187;DHT22;18686;53.084;8.872;2024-02-26T00:01:53;3.00;99.90
32187;DHT22;18686;53.084;8.872;2024-02-26T00:04:22;3.00;99.90
32187;DHT22;18686;53.084;8.872;2024-02-26T00:06:55;2.90;99.90
32187;DHT22;18686;53.084;8.872;2024-02-26T00:09:27;2.90;99.90
32187;DHT22;18686;53.084;8.872;2024-02-26T00:11:56;2.90;99.90
32187;DHT22;18686;53.084;8.872;2024-02-26T00:14:35;2.90;99.90
32187;DHT22;18686;53.084;8.872;2024-02-26T00:17:12;2.90;99.90
32187;DHT22;18686;53.084;8.872;2024-02-26T00:19:57;2.90;99.90
32187;DHT22;18686;53.084;8.872;2024-02-26T00:22:38;2.90;99.90
32187;DHT22;18686;53.084;8.872;2024-02-26T00:25:15;2.90;99.90
32187;DHT22;18686;53.084;8.872;2024-02-26T00:27:44;2.80;99.90
32187;DHT22;18686;53.084;8.872;2024-02-26T00:30:53;2.90;99.90
32187;DHT22;18686;53.084;8.872;2024-02-26T00:33:45;2.80;99.90
32187;DHT22;18686;53.084;8.872;2024-02-26T00:36:17;2.80;99.90
32187;DHT22;18686;53.084;8.872;2024-02-26T00:38:48;2.80;99.90
32187;DHT22;18686;53.084;8.872;2024-02-26T00:41:20;2.80;99.90
32187;DHT22;18686;53.084;8.872;2024-02-26T00:43:49;2.80;99.90
32187;DHT22;18686;53.084;8.872;2024-02-26T00:46:18;2.80;99.90
32187;DHT22;18686;53.084;8.872;2024-02-26T00:48:47;2.80;99.90
32187;DHT22;18686;53.084;8.872;2024-02-26T00:51:16;2.70;99.90
32187;DHT22;18686;53.084;8.872;2024-02-26T00:53:49;2.70;99.90
32187;DHT22;18686;53.084;8.872;2024-02-26T00:56:18;2.70;99.90
32187;DHT22;18686;53.084;8.872;2024-02-26T00:58:48;2.70;99.90
32187;DHT22;18686;53.084;8.872;2024-02-26T01:01:17;2.70;99.90
32187;DHT22;18686;53.084;8.872;2024-02-26T01:03:46;2.60;99.90
32187;DHT22;18686;53.084;8.872;2024-02-26T01:06:15;2.60;99.90
32187;DHT22;18686;53.084;8.872;2024-02-26T01:08:44;2.60;99.90
32187;DHT22;18686;53.084;8.872;2024-02-26T01:11:14;2.60;99.90
32187;DHT22;18686;53.084;8.872;2024-02-26T01:13:44;2.60;99.90
32187;DHT22;18686;53.084;8.872;2024-02-26T01:16:12;2.60;99.90
32187;DHT22;18686;53.084;8.872;2024-02-26T01:18:42;2.60;99.90
32187;DHT22;18686;53.084;8.872;2024-02-26T01:21:11;2.50;99.90
32187;DHT22;18686;53.084;8.872;2024-02-26T01:23:41;2.60;99.90
32187;DHT22;18686;53.084;8.872;2024-02-26T01:26:10;2.50;99.90
32187;DHT22;18686;53.084;8.872;2024-02-26T01:28:40;2.50;99.90
32187;DHT22;18686;53.084;8.872;2024-02-26T01:31:09;2.50;99.90
32187;DHT22;18686;53.084;8.872;2024-02-26T01:33:38;2.40;99.90
32187;DHT22;18686;53.084;8.872;2024-02-26T01:36:08;2.40;99.90
32187;DHT22;18686;53.084;8.872;2024-02-26T01:38:38;2.40;99.90
32187;DHT22;18686;53.084;8.872;2024-02-26T01:41:07;2.40;99.90
32187;DHT22;18686;53.084;8.872;2024-02-26T01:43:37;2.40;99.90
32187;DHT22;18686;53.084;8.872;2024-02-26T01:46:12;2.40;99.90
32187;DHT22;18686;53.084;8.872;2024-02-26T01:48:42;2.40;99.90
32187;DHT22;18686;53.084;8.872;2024-02-26T01:51:12;2.40;99.90
32187;DHT22;18686;53.084;8.872;2024-02-26T01:53:43;2.40;99.90
32187;DHT22;18686;53.084;8.872;2024-02-26T01:56:13;2.40;99.90
32187;DHT22;18686;53.084;8.872;2024-02-26T01:58:43;2.40;99.90
32187;DHT22;18686;53.084;8.872;2024-02-26T02:01:15;2.40;99.90
32187;DHT22;18686;53.084;8.872;2024-02-26T02:03:45;2.40;99.90
32187;DHT22;18686;53.084;8.872;2024-02-26T02:06:15;2.40;99.90
32187;DHT22;18686;53.084;8.872;2024-02-26T02:08:44;2.40;99.90
32187;DHT22;18686;53.084;8.872;2024-02-26T02:11:13;2.40;99.90
32187;DHT22;18686;53.084;8.872;2024-02-26T02:13:43;2.40;99.90
32187;DHT22;18686;53.084;8.872;2024-02-26T02:16:14;2.40;99.90
32187;DHT22;18686;53.084;8.872;2024-02-26T02:18:49;2.40;99.90
32187;DHT22;18686;53.084;8.872;2024-02-26T02:21:24;2.40;99.90
32187;DHT22;18686;53.084;8.872;2024-02-26T02:23:53;2.40;99.90
32187;DHT22;18686;53.084;8.872;2024-02-26T02:26:22;2.40;99.90
32187;DHT22;18686;53.084;8.872;2024-02-26T02:28:51;2.40;99.90
32187;DHT22;18686;53.084;8.872;2024-02-26T02:31:21;2.40;99.90
32187;DHT22;18686;53.084;8.872;2024-02-26T02:33:51;2.40;99.90
32187;DHT22;18686;53.084;8.872;2024-02-26T02:36:21;2.40;99.90
32187;DHT22;18686;53.084;8.872;2024-02-26T02:38:51;2.40;99.90
32187;DHT22;18686;53.084;8.872;2024-02-26T02:41:20;2.40;99.90
32187;DHT22;18686;53.084;8.872;2024-02-26T02:43:49;2.40;99.90
32187;DHT22;18686;53.084;8.872;2024-02-26T02:46:18;2.40;99.90
32187;DHT22;18686;53.084;8.872;2024-02-26T02:48:46;2.30;99.90
32187;DHT22;18686;53.084;8.872;2024-02-26T02:51:15;2.40;99.90
32187;DHT22;18686;53.084;8.872;2024-02-26T02:53:45;2.30;99.90
32187;DHT22;18686;53.084;8.872;2024-02-26T02:56:14;2.30;99.90
32187;DHT22;18686;53.084;8.872;2024-02-26T02:58:43;2.30;99.90
32187;DHT22;18686;53.084;8.872;2024-02-26T03:01:13;2.30;99.90
32187;DHT22;18686;53.084;8.872;2024-02-26T03:03:42;2.30;99.90
32187;DHT22;18686;53.084;8.872;2024-02-26T03:06:12;2.30;99.90
32187;DHT22;18686;53.084;8.872;2024-02-26T03:08:41;2.30;99.90
32187;DHT22;18686;53.084;8.872;2024-02-26T03:11:14;2.30;99.90
32187;DHT22;18686;53.084;8.872;2024-02-26T03:13:43;2.30;99.90
32187;DHT22;18686;53.084;8.872;2024-02-26T03:16:13;2.20;99.90
32187;DHT22;18686;53.084;8.872;2024-02-26T03:18:42;2.30;99.90
32187;DHT22;18686;53.084;8.872;2024-02-26T03:21:12;2.30;99.90
32187;DHT22;18686;53.084;8.872;2024-02-26T03:23:41;2.30;99.90
32187;DHT22;18686;53.084;8.872;2024-02-26T03:26:11;2.30;99.90
32187;DHT22;18686;53.084;8.872;2024-02-26T03:28:43;2.30;99.90
32187;DHT22;18686;53.084;8.872;2024-02-26T03:31:12;2.30;99.90
32187;DHT22;18686;53.084;8.872;2024-02-26T03:33:42;2.30;99.90
32187;DHT22;18686;53.084;8.872;2024-02-26T03:36:11;2.30;99.90
32187;DHT22;18686;53.084;8.872;2024-02-26T03:38:43;2.40;99.90
32187;DHT22;18686;53.084;8.872;2024-02-26T03:41:12;2.40;99.90
32187;DHT22;18686;53.084;8.872;2024-02-26T03:43:42;2.40;99.90
32187;DHT22;18686;53.084;8.872;2024-02-26T03:46:31;2.40;99.90
32187;DHT22;18686;53.084;8.872;2024-02-26T03:49:01;2.40;99.90
32187;DHT22;18686;53.084;8.872;2024-02-26T03:51:31;2.40;99.90
32187;DHT22;18686;53.084;8.872;2024-02-26T03:54:00;2.40;99.90
32187;DHT22;18686;53.084;8.872;2024-02-26T03:56:30;2.40;99.90
32187;DHT22;18686;53.084;8.872;2024-02-26T03:59:00;2.40;99.90
32187;DHT22;18686;53.084;8.872;2024-02-26T04:01:29;2.40;99.90
32187;DHT22;18686;53.084;8.872;2024-02-26T04:03:58;2.40;99.90
32187;DHT22;18686;53.084;8.872;2024-02-26T04:06:28;2.40;99.90
32187;DHT22;18686;53.084;8.872;2024-02-26T04:08:57;2.50;99.90
32187;DHT22;18686;53.084;8.872;2024-02-26T04:11:26;2.50;99.90
32187;DHT22;18686;53.084;8.872;2024-02-26T04:13:56;2.50;99.90
32187;DHT22;18686;53.084;8.872;2024-02-26T04:16:28;2.50;99.90
32187;DHT22;18686;53.084;8.872;2024-02-26T04:18:57;2.50;99.90
32187;DHT22;18686;53.084;8.872;2024-02-26T04:21:26;2.50;99.90
32187;DHT22;18686;53.084;8.872;2024-02-26T04:23:58;2.50;99.90
32187;DHT22;18686;53.084;8.872;2024-02-26T04:26:30;2.50;99.90
32187;DHT22;18686;53.084;8.872;2024-02-26T04:29:02;2.50;99.90
32187;DHT22;18686;53.084;8.872;2024-02-26T04:31:53;2.50;99.90
32187;DHT22;18686;53.084;8.872;2024-02-26T04:34:30;2.50;99.90
32187;DHT22;18686;53.084;8.872;2024-02-26T04:36:59;2.50;99.90
32187;DHT22;18686;53.084;8.872;2024-02-26T04:39:38;2.50;99.90
32187;DHT22;18686;53.084;8.872;2024-02-26T04:42:07;2.50;99.90
32187;DHT22;18686;53.084;8.872;2024-02-26T04:44:36;2.60;99.90
32187;DHT22;18686;53.084;8.872;2024-02-26T04:47:07;2.60;99.90
32187;DHT22;18686;53.084;8.872;2024-02-26T04:49:36;2.60;99.90
32187;DHT22;18686;53.084;8.872;2024-02-26T04:52:05;2.60;99.90
32187;DHT22;18686;53.084;8.872;2024-02-26T04:54:34;2.60;99.90
32187;DHT22;18686;53.084;8.872;2024-02-26T04:57:13;2.60;99.90
32187;DHT22;18686;53.084;8.872;2024-02-26T04:59:42;2.60;99.90
32187;DHT22;18686;53.084;8.872;2024-02-26T05:02:14;2.70;99.90
32187;DHT22;18686;53.084;8.872;2024-02-26T05:04:43;2.70;99.90
32187;DHT22;18686;53.084;8.872;2024-02-26T05:07:12;2.70;99.90
32187;DHT22;18686;53.084;8.872;2024-02-26T05:09:41;2.70;99.90
32187;DHT22;18686;53.084;8.872;2024-02-26T05:12:11;2.80;99.90
32187;DHT22;18686;53.084;8.872;2024-02-26T05:14:40;2.80;99.90
32187;DHT22;18686;53.084;8.872;2024-02-26T05:17:09;2.90;99.90
32187;DHT22;18686;53.084;8.872;2024-02-26T05:19:39;2.90;99.90
32187;DHT22;18686;53.084;8.872;2024-02-26T05:22:08;3.00;99.90
32187;DHT22;18686;53.084;8.872;2024-02-26T05:24:38;3.00;99.90
32187;DHT22;18686;53.084;8.872;2024-02-26T05:27:07;3.00;99.90
32187;DHT22;18686;53.084;8.872;2024-02-26T05:29:36;3.00;99.90
32187;DHT22;18686;53.084;8.872;2024-02-26T05:32:06;3.00;99.90
32187;DHT22;18686;53.084;8.872;2024-02-26T05:34:35;3.10;99.90
32187;DHT22;18686;53.084;8.872;2024-02-26T05:37:05;3.10;99.90
32187;DHT22;18686;53.084;8.872;2024-02-26T05:39:52;3.10;99.90
32187;DHT22;18686;53.084;8.872;2024-02-26T05:42:34;3.10;99.90
32187;DHT22;18686;53.084;8.872;2024-02-26T05:45:04;3.20;99.90
32187;DHT22;18686;53.084;8.872;2024-02-26T05:47:34;3.20;99.90
32187;DHT22;18686;53.084;8.872;2024-02-26T05:50:03;3.30;99.90
32187;DHT22;18686;53.084;8.872;2024-02-26T05:52:35;3.30;99.90
32187;DHT22;18686;53.084;8.872;2024-02-26T05:55:05;3.30;99.90
32187;DHT22;18686;53.084;8.872;2024-02-26T05:57:34;3.30;99.90
32187;DHT22;18686;53.084;8.872;2024-02-26T06:00:07;3.40;99.90
32187;DHT22;18686;53.084;8.872;2024-02-26T06:02:41;3.40;99.90
32187;DHT22;18686;53.084;8.872;2024-02-26T06:05:10;3.40;99.90
32187;DHT22;18686;53.084;8.872;2024-02-26T06:07:40;3.40;99.90
32187;DHT22;18686;53.084;8.872;2024-02-26T06:10:12;3.40;99.90
32187;DHT22;18686;53.084;8.872;2024-02-26T06:12:42;3.40;99.90
32187;DHT22;18686;53.084;8.872;2024-02-26T06:15:12;3.40;99.90
32187;DHT22;18686;53.084;8.872;2024-02-26T06:17:41;3.50;99.90
32187;DHT22;18686;53.084;8.872;2024-02-26T06:20:41;3.40;99.90
32187;DHT22;18686;53.084;8.872;2024-02-26T06:27:06;3.50;99.90
32187;DHT22;18686;53.084;8.872;2024-02-26T06:29:45;3.50;99.90
32187;DHT22;18686;53.084;8.872;2024-02-26T06:32:23;3.50;99.90
32187;DHT22;18686;53.084;8.872;2024-02-26T06:35:00;3.50;99.90
32187;DHT22;18686;53.084;8.872;2024-02-26T06:37:40;3.60;99.90
32187;DHT22;18686;53.084;8.872;2024-02-26T06:40:11;3.60;99.90
32187;DHT22;18686;53.084;8.872;2024-02-26T06:42:40;3.60;99.90
32187;DHT22;18686;53.084;8.872;2024-02-26T06:45:14;3.70;99.90
32187;DHT22;18686;53.084;8.872;2024-02-26T06:47:43;3.80;99.90
32187;DHT22;18686;53.084;8.872;2024-02-26T06:50:12;3.80;99.90
32187;DHT22;18686;53.084;8.872;2024-02-26T06:52:44;3.80;99.90
32187;DHT22;18686;53.084;8.872;2024-02-26T06:55:14;3.90;99.90
32187;DHT22;18686;53.084;8.872;2024-02-26T06:57:43;3.90;99.90
32187;DHT22;18686;53.084;8.872;2024-02-26T07:00:13;4.00;99.90
32187;DHT22;18686;53.084;8.872;2024-02-26T07:02:44;4.00;99.90
32187;DHT22;18686;53.084;8.872;2024-02-26T07:05:13;4.10;99.90
32187;DHT22;18686;53.084;8.872;2024-02-26T07:07:42;4.20;99.90
32187;DHT22;18686;53.084;8.872;2024-02-26T07:10:12;4.30;99.90
32187;DHT22;18686;53.084;8.872;2024-02-26T07:13:17;4.30;99.90
32187;DHT22;18686;53.084;8.872;2024-02-26T07:19:59;4.40;99.90
32187;DHT22;18686;53.084;8.872;2024-02-26T07:23:13;4.50;99.90
32187;DHT22;18686;53.084;8.872;2024-02-26T07:25:59;4.60;99.90
32187;DHT22;18686;53.084;8.872;2024-02-26T07:31:25;4.80;99.90
32187;DHT22;18686;53.084;8.872;2024-02-26T07:33:54;4.80;99.90
32187;DHT22;18686;53.084;8.872;2024-02-26T07:36:23;4.90;99.90
32187;DHT22;18686;53.084;8.872;2024-02-26T07:38:54;4.90;99.90
32187;DHT22;18686;53.084;8.872;2024-02-26T07:41:23;5.00;99.90
32187;DHT22;18686;53.084;8.872;2024-02-26T07:43:54;5.10;99.90
32187;DHT22;18686;53.084;8.872;2024-02-26T07:46:26;5.10;99.90
32187;DHT22;18686;53.084;8.872;2024-02-26T07:49:03;5.20;99.90
32187;DHT22;18686;53.084;8.872;2024-02-26T07:51:32;5.30;99.90
32187;DHT22;18686;53.084;8.872;2024-02-26T07:54:02;5.30;99.90
32187;DHT22;18686;53.084;8.872;2024-02-26T07:56:31;5.30;99.90
32187;DHT22;18686;53.084;8.872;2024-02-26T07:59:02;5.40;99.90
32187;DHT22;18686;53.084;8.872;2024-02-26T08:01:31;5.50;99.90
32187;DHT22;18686;53.084;8.872;2024-02-26T08:04:04;5.50;99.90
32187;DHT22;18686;53.084;8.872;2024-02-26T08:06:39;5.60;99.90
32187;DHT22;18686;53.084;8.872;2024-02-26T08:09:11;5.70;99.90
32187;DHT22;18686;53.084;8.872;2024-02-26T08:11:40;5.70;99.90
32187;DHT22;18686;53.084;8.872;2024-02-26T08:14:11;5.80;99.90
32187;DHT22;18686;53.084;8.872;2024-02-26T08:16:40;5.80;99.90
32187;DHT22;18686;53.084;8.872;2024-02-26T08:19:10;5.80;99.90
32187;DHT22;18686;53.084;8.872;2024-02-26T08:21:42;5.80;99.90
32187;DHT22;18686;53.084;8.872;2024-02-26T08:24:11;5.90;99.90
32187;DHT22;18686;53.084;8.872;2024-02-26T08:26:39;5.90;99.90
32187;DHT22;18686;53.084;8.872;2024-02-26T08:29:09;5.90;99.90
32187;DHT22;18686;53.084;8.872;2024-02-26T08:31:39;5.90;99.90
32187;DHT22;18686;53.084;8.872;2024-02-26T08:34:09;6.00;99.90
32187;DHT22;18686;53.084;8.872;2024-02-26T08:36:38;6.00;99.90
32187;DHT22;18686;53.084;8.872;2024-02-26T08:39:08;6.10;99.90
32187;DHT22;18686;53.084;8.872;2024-02-26T08:41:51;6.10;99.90
32187;DHT22;18686;53.084;8.872;2024-02-26T08:53:16;6.30;99.90
32187;DHT22;18686;53.084;8.872;2024-02-26T08:56:23;6.50;99.90
32187;DHT22;18686;53.084;8.872;2024-02-26T08:59:30;6.60;99.90
32187;DHT22;18686;53.084;8.872;2024-02-26T09:02:00;6.60;99.90
32187;DHT22;18686;53.084;8.872;2024-02-26T09:04:29;6.80;99.90
32187;DHT22;18686;53.084;8.872;2024-02-26T09:06:58;6.80;99.90
32187;DHT22;18686;53.084;8.872;2024-02-26T09:09:29;6.90;99.90
32187;DHT22;18686;53.084;8.872;2024-02-26T09:11:58;7.00;99.90
32187;DHT22;18686;53.084;8.872;2024-02-26T09:14:46;7.10;99.90
32187;DHT22;18686;53.084;8.872;2024-02-26T09:17:15;7.20;99.90
32187;DHT22;18686;53.084;8.872;2024-02-26T09:19:44;7.30;99.90
32187;DHT22;18686;53.084;8.872;2024-02-26T09:25:26;7.40;99.90
32187;DHT22;18686;53.084;8.872;2024-02-26T09:31:51;7.70;99.90
32187;DHT22;18686;53.084;8.872;2024-02-26T09:34:07;7.80;99.90
32187;DHT22;18686;53.084;8.872;2024-02-26T09:36:59;8.00;99.90
32187;DHT22;18686;53.084;8.872;2024-02-26T09:39:49;8.20;99.90
32187;DHT22;18686;53.084;8.872;2024-02-26T09:42:20;8.40;99.90
32187;DHT22;18686;53.084;8.872;2024-02-26T09:44:53;8.50;99.90
32187;DHT22;18686;53.084;8.872;2024-02-26T09:47:23;8.70;99.90
32187;DHT22;18686;53.084;8.872;2024-02-26T09:49:57;8.80;99.90
32187;DHT22;18686;53.084;8.872;2024-02-26T09:52:31;9.00;99.90
32187;DHT22;18686;53.084;8.872;2024-02-26T09:55:05;9.30;99.90
32187;DHT22;18686;53.084;8.872;2024-02-26T10:02:12;9.80;99.90
32187;DHT22;18686;53.084;8.872;2024-02-26T10:04:42;10.10;99.90
32187;DHT22;18686;53.084;8.872;2024-02-26T10:15:21;10.90;99.90
32187;DHT22;18686;53.084;8.872;2024-02-26T10:17:51;11.10;99.90
32187;DHT22;18686;53.084;8.872;2024-02-26T10:20:21;11.30;99.90
32187;DHT22;18686;53.084;8.872;2024-02-26T10:22:51;11.60;99.90
32187;DHT22;18686;53.084;8.872;2024-02-26T10:25:21;11.80;99.90
32187;DHT22;18686;53.084;8.872;2024-02-26T10:27:50;12.00;99.90
32187;DHT22;18686;53.084;8.872;2024-02-26T10:30:22;12.10;99.90
32187;DHT22;18686;53.084;8.872;2024-02-26T10:32:53;12.30;99.90
32187;DHT22;18686;53.084;8.872;2024-02-26T10:35:38;12.50;99.90
32187;DHT22;18686;53.084;8.872;2024-02-26T10:51:37;14.30;99.90
32187;DHT22;18686;53.084;8.872;2024-02-26T10:54:11;15.10;97.60
32187;DHT22;18686;53.084;8.872;2024-02-26T10:56:42;15.20;94.70
32187;DHT22;18686;53.084;8.872;2024-02-26T10:59:12;15.20;94.70
32187;DHT22;18686;53.084;8.872;2024-02-26T11:02:01;15.10;93.10
32187;DHT22;18686;53.084;8.872;2024-02-26T11:04:31;15.00;93.20
32187;DHT22;18686;53.084;8.872;2024-02-26T11:07:02;14.80;92.00
32187;DHT22;18686;53.084;8.872;2024-02-26T11:09:35;14.70;90.90
32187;DHT22;18686;53.084;8.872;2024-02-26T11:12:09;14.70;90.80
32187;DHT22;18686;53.084;8.872;2024-02-26T11:14:40;14.70;91.30
32187;DHT22;18686;53.084;8.872;2024-02-26T11:17:13;14.80;90.50
32187;DHT22;18686;53.084;8.872;2024-02-26T11:19:45;14.90;89.00
32187;DHT22;18686;53.084;8.872;2024-02-26T11:22:16;14.90;87.90
32187;DHT22;18686;53.084;8.872;2024-02-26T11:24:52;15.00;85.70
32187;DHT22;18686;53.084;8.872;2024-02-26T11:27:25;15.00;86.00
32187;DHT22;18686;53.084;8.872;2024-02-26T11:29:59;15.10;83.60
32187;DHT22;18686;53.084;8.872;2024-02-26T11:32:30;15.20;82.40
32187;DHT22;18686;53.084;8.872;2024-02-26T11:34:59;15.30;81.50
32187;DHT22;18686;53.084;8.872;2024-02-26T11:37:30;15.30;80.90
32187;DHT22;18686;53.084;8.872;2024-02-26T11:40:10;15.20;81.10
32187;DHT22;18686;53.084;8.872;2024-02-26T11:42:44;15.30;81.30
32187;DHT22;18686;53.084;8.872;2024-02-26T11:45:52;15.20;81.30
32187;DHT22;18686;53.084;8.872;2024-02-26T11:48:24;15.10;81.50
32187;DHT22;18686;53.084;8.872;2024-02-26T11:50:54;15.00;81.00
32187;DHT22;18686;53.084;8.872;2024-02-26T11:53:26;14.80;81.60
32187;DHT22;18686;53.084;8.872;2024-02-26T11:56:21;14.70;82.50
32187;DHT22;18686;53.084;8.872;2024-02-26T11:58:57;14.50;84.10
32187;DHT22;18686;53.084;8.872;2024-02-26T12:01:46;14.50;82.90
32187;DHT22;18686;53.084;8.872;2024-02-26T12:04:18;14.40;84.60
32187;DHT22;18686;53.084;8.872;2024-02-26T12:06:51;14.40;82.60
32187;DHT22;18686;53.084;8.872;2024-02-26T12:09:40;14.40;82.90
32187;DHT22;18686;53.084;8.872;2024-02-26T12:12:10;14.40;83.50
32187;DHT22;18686;53.084;8.872;2024-02-26T12:14:40;14.50;82.60
32187;DHT22;18686;53.084;8.872;2024-02-26T12:17:19;14.60;83.20
32187;DHT22;18686;53.084;8.872;2024-02-26T12:19:49;14.70;83.60
32187;DHT22;18686;53.084;8.872;2024-02-26T12:22:18;15.10;82.90
32187;DHT22;18686;53.084;8.872;2024-02-26T12:24:58;15.40;81.20
32187;DHT22;18686;53.084;8.872;2024-02-26T12:27:30;15.60;79.00
32187;DHT22;18686;53.084;8.872;2024-02-26T12:29:59;15.90;78.30
32187;DHT22;18686;53.084;8.872;2024-02-26T12:32:27;16.10;77.60
32187;DHT22;18686;53.084;8.872;2024-02-26T12:34:57;16.40;76.90
32187;DHT22;18686;53.084;8.872;2024-02-26T12:37:26;16.80;74.70
32187;DHT22;18686;53.084;8.872;2024-02-26T12:39:56;17.20;73.90
32187;DHT22;18686;53.084;8.872;2024-02-26T12:42:26;17.60;73.50
32187;DHT22;18686;53.084;8.872;2024-02-26T12:44:56;18.10;71.10
32187;DHT22;18686;53.084;8.872;2024-02-26T12:47:25;18.70;68.60
32187;DHT22;18686;53.084;8.872;2024-02-26T12:49:54;19.00;67.10
32187;DHT22;18686;53.084;8.872;2024-02-26T12:52:23;19.50;66.10
32187;DHT22;18686;53.084;8.872;2024-02-26T12:54:54;19.80;63.70
32187;DHT22;18686;53.084;8.872;2024-02-26T12:57:24;20.10;61.80
32187;DHT22;18686;53.084;8.872;2024-02-26T12:59:54;19.90;60.40
32187;DHT22;18686;53.084;8.872;2024-02-26T13:02:23;19.60;60.80
32187;DHT22;18686;53.084;8.872;2024-02-26T13:04:53;19.20;59.30
32187;DHT22;18686;53.084;8.872;2024-02-26T13:07:22;19.00;59.90
32187;DHT22;18686;53.084;8.872;2024-02-26T13:09:52;19.00;60.20
32187;DHT22;18686;53.084;8.872;2024-02-26T13:12:21;19.10;61.00
32187;DHT22;18686;53.084;8.872;2024-02-26T13:15:00;19.10;59.30
32187;DHT22;18686;53.084;8.872;2024-02-26T13:17:31;18.80;60.70
32187;DHT22;18686;53.084;8.872;2024-02-26T13:20:00;18.80;60.00
32187;DHT22;18686;53.084;8.872;2024-02-26T13:22:31;18.70;59.50
32187;DHT22;18686;53.084;8.872;2024-02-26T13:25:01;18.40;59.40
32187;DHT22;18686;53.084;8.872;2024-02-26T13:27:30;18.20;59.70
32187;DHT22;18686;53.084;8.872;2024-02-26T13:30:09;18.10;59.30
32187;DHT22;18686;53.084;8.872;2024-02-26T13:32:39;17.90;62.10
32187;DHT22;18686;53.084;8.872;2024-02-26T13:35:10;17.80;61.40
32187;DHT22;18686;53.084;8.872;2024-02-26T13:37:40;17.60;62.30
32187;DHT22;18686;53.084;8.872;2024-02-26T13:40:10;17.50;62.30
32187;DHT22;18686;53.084;8.872;2024-02-26T13:42:39;17.20;62.60
32187;DHT22;18686;53.084;8.872;2024-02-26T13:45:09;16.80;63.10
32187;DHT22;18686;53.084;8.872;2024-02-26T13:47:39;16.50;63.60
32187;DHT22;18686;53.084;8.872;2024-02-26T13:50:09;16.00;65.50
32187;DHT22;18686;53.084;8.872;2024-02-26T13:52:38;15.60;66.50
32187;DHT22;18686;53.084;8.872;2024-02-26T13:55:08;15.20;68.00
32187;DHT22;18686;53.084;8.872;2024-02-26T13:57:37;14.80;70.70
32187;DHT22;18686;53.084;8.872;2024-02-26T14:00:09;14.50;71.00
32187;DHT22;18686;53.084;8.872;2024-02-26T14:02:40;14.20;72.70
32187;DHT22;18686;53.084;8.872;2024-02-26T14:05:08;14.00;73.70
32187;DHT22;18686;53.084;8.872;2024-02-26T14:07:37;13.70;74.80
32187;DHT22;18686;53.084;8.872;2024-02-26T14:10:07;13.50;76.00
32187;DHT22;18686;53.084;8.872;2024-02-26T14:12:37;13.30;79.40
32187;DHT22;18686;53.084;8.872;2024-02-26T14:15:07;13.10;81.60
32187;DHT22;18686;53.084;8.872;2024-02-26T14:17:42;12.90;82.70
32187;DHT22;18686;53.084;8.872;2024-02-26T14:20:11;12.70;85.10
32187;DHT22;18686;53.084;8.872;2024-02-26T14:22:41;12.50;86.00
32187;DHT22;18686;53.084;8.872;2024-02-26T14:25:09;12.40;87.30
32187;DHT22;18686;53.084;8.872;2024-02-26T14:27:38;12.20;90.20
32187;DHT22;18686;53.084;8.872;2024-02-26T14:30:08;12.10;90.50
32187;DHT22;18686;53.084;8.872;2024-02-26T14:32:37;12.00;91.40
32187;DHT22;18686;53.084;8.872;2024-02-26T14:35:08;11.90;93.20
32187;DHT22;18686;53.084;8.872;2024-02-26T14:37:44;11.70;94.60
32187;DHT22;18686;53.084;8.872;2024-02-26T14:40:15;11.50;95.90
32187;DHT22;18686;53.084;8.872;2024-02-26T14:42:44;11.40;97.50
32187;DHT22;18686;53.084;8.872;2024-02-26T14:45:14;11.30;98.30
32187;DHT22;18686;53.084;8.872;2024-02-26T14:47:44;11.20;98.70
32187;DHT22;18686;53.084;8.872;2024-02-26T14:50:14;11.10;99.60
32187;DHT22;18686;53.084;8.872;2024-02-26T14:52:43;11.00;99.90
32187;DHT22;18686;53.084;8.872;2024-02-26T14:55:12;10.80;99.90
32187;DHT22;18686;53.084;8.872;2024-02-26T14:57:41;10.70;99.90
32187;DHT22;18686;53.084;8.872;2024-02-26T15:00:10;10.60;99.90
32187;DHT22;18686;53.084;8.872;2024-02-26T15:02:39;10.50;99.90
32187;DHT22;18686;53.084;8.872;2024-02-26T15:05:08;10.30;99.90
32187;DHT22;18686;53.084;8.872;2024-02-26T15:07:41;10.20;99.90
32187;DHT22;18686;53.084;8.872;2024-02-26T15:10:11;10.10;99.90
32187;DHT22;18686;53.084;8.872;2024-02-26T15:12:40;10.00;99.90
32187;DHT22;18686;53.084;8.872;2024-02-26T15:15:09;9.80;99.90
32187;DHT22;18686;53.084;8.872;2024-02-26T15:17:38;9.70;99.90
32187;DHT22;18686;53.084;8.872;2024-02-26T15:20:08;9.60;99.90
32187;DHT22;18686;53.084;8.872;2024-02-26T15:22:38;9.60;99.90
32187;DHT22;18686;53.084;8.872;2024-02-26T15:25:08;9.50;99.90
32187;DHT22;18686;53.084;8.872;2024-02-26T15:27:42;9.40;99.90
32187;DHT22;18686;53.084;8.872;2024-02-26T15:30:11;9.40;99.90
32187;DHT22;18686;53.084;8.872;2024-02-26T15:32:40;9.30;99.90
32187;DHT22;18686;53.084;8.872;2024-02-26T15:35:11;9.30;99.90
32187;DHT22;18686;53.084;8.872;2024-02-26T15:37:40;9.30;99.90
32187;DHT22;18686;53.084;8.872;2024-02-26T15:40:11;9.20;99.90
32187;DHT22;18686;53.084;8.872;2024-02-26T15:42:40;9.20;99.90
32187;DHT22;18686;53.084;8.872;2024-02-26T15:45:10;9.10;99.90
32187;DHT22;18686;53.084;8.872;2024-02-26T15:47:40;9.10;99.90
32187;DHT22;18686;53.084;8.872;2024-02-26T15:50:09;9.00;99.90
32187;DHT22;18686;53.084;8.872;2024-02-26T15:52:39;8.90;99.90
32187;DHT22;18686;53.084;8.872;2024-02-26T15:55:09;8.80;99.90
32187;DHT22;18686;53.084;8.872;2024-02-26T15:57:43;8.80;99.90
32187;DHT22;18686;53.084;8.872;2024-02-26T16:00:13;8.70;99.90
32187;DHT22;18686;53.084;8.872;2024-02-26T16:02:42;8.60;99.90
32187;DHT22;18686;53.084;8.872;2024-02-26T16:05:10;8.60;99.90
32187;DHT22;18686;53.084;8.872;2024-02-26T16:07:43;8.50;99.90
32187;DHT22;18686;53.084;8.872;2024-02-26T16:10:14;8.40;99.90
32187;DHT22;18686;53.084;8.872;2024-02-26T16:12:45;8.30;99.90
32187;DHT22;18686;53.084;8.872;2024-02-26T16:15:16;8.30;99.90
32187;DHT22;18686;53.084;8.872;2024-02-26T16:17:48;8.20;99.90
32187;DHT22;18686;53.084;8.872;2024-02-26T16:20:20;8.20;99.90
32187;DHT22;18686;53.084;8.872;2024-02-26T16:22:51;8.20;99.90
32187;DHT22;18686;53.084;8.872;2024-02-26T16:25:21;8.10;99.90
32187;DHT22;18686;53.084;8.872;2024-02-26T16:27:50;8.00;99.90
32187;DHT22;18686;53.084;8.872;2024-02-26T16:30:19;8.00;99.90
32187;DHT22;18686;53.084;8.872;2024-02-26T16:32:48;7.90;99.90
32187;DHT22;18686;53.084;8.872;2024-02-26T16:35:17;7.90;99.90
32187;DHT22;18686;53.084;8.872;2024-02-26T16:37:47;7.80;99.90
32187;DHT22;18686;53.084;8.872;2024-02-26T16:40:15;7.80;99.90
32187;DHT22;18686;53.084;8.872;2024-02-26T16:42:45;7.70;99.90
32187;DHT22;18686;53.084;8.872;2024-02-26T16:45:14;7.70;99.90
32187;DHT22;18686;53.084;8.872;2024-02-26T16:47:43;7.70;99.90
32187;DHT22;18686;53.084;8.872;2024-02-26T16:50:12;7.60;99.90
32187;DHT22;18686;53.084;8.872;2024-02-26T16:52:41;7.50;99.90
32187;DHT22;18686;53.084;8.872;2024-02-26T16:55:09;7.50;99.90
32187;DHT22;18686;53.084;8.872;2024-02-26T16:57:40;7.50;99.90
32187;DHT22;18686;53.084;8.872;2024-02-26T17:00:11;7.40;99.90
32187;DHT22;18686;53.084;8.872;2024-02-26T17:02:43;7.40;99.90
32187;DHT22;18686;53.084;8.872;2024-02-26T17:05:14;7.30;99.90